Time;durP1;ratioP1;P1;durP2;ratioP2;P2;SDS_P1;SDS_P2;PMS_P1;PMS_P2;Temp;Humidity;BMP_temperature;BMP_pressure;BME280_temperature;BME280_humidity;BME280_pressure;Samples;Min_cycle;Max_cycle;Signal;HPM_P1;HPM_P2
2022/11/24 00:01:19;;;;;;;11.67;4.30;;;7.80;39.40;;;;;;5025300;28;20475;-62
2022/11/24 00:03:53;;;;;;;8.33;3.60;;;7.80;39.30;;;;;;5021354;28;20913;-62
2022/11/24 00:06:21;;;;;;;7.63;3.60;;;7.80;39.30;;;;;;5026974;28;20458;-62
2022/11/24 00:08:48;;;;;;;7.00;3.73;;;7.90;39.20;;;;;;5019902;28;20495;-62
2022/11/24 00:11:17;;;;;;;11.70;4.27;;;7.90;39.10;;;;;;5027973;28;20459;-62
2022/11/24 00:13:44;;;;;;;7.67;3.93;;;7.90;39.10;;;;;;5015483;28;20900;-62
2022/11/24 00:16:13;;;;;;;8.83;4.67;;;7.90;39.00;;;;;;5017279;28;20486;-62
2022/11/24 00:18:41;;;;;;;7.33;4.13;;;7.90;39.00;;;;;;5022983;28;20573;-62
2022/11/24 00:21:10;;;;;;;7.30;3.77;;;7.90;38.90;;;;;;5025411;28;20549;-62
2022/11/24 00:23:37;;;;;;;12.57;4.40;;;8.00;38.80;;;;;;5012083;28;20559;-63
2022/11/24 00:26:06;;;;;;;8.23;3.73;;;8.00;38.70;;;;;;5020761;28;20550;-62
2022/11/24 00:28:34;;;;;;;8.50;3.93;;;8.00;38.50;;;;;;5021516;28;20510;-62
2022/11/24 00:31:01;;;;;;;10.70;3.97;;;8.00;38.60;;;;;;5024681;28;20559;-63
2022/11/24 00:33:28;;;;;;;8.87;4.13;;;8.00;38.40;;;;;;5024602;28;20516;-62
2022/11/24 00:35:56;;;;;;;9.93;4.00;;;7.90;38.40;;;;;;5021736;28;20478;-62
2022/11/24 00:38:24;;;;;;;6.73;3.50;;;7.90;38.50;;;;;;5025388;28;20510;-63
2022/11/24 00:40:52;;;;;;;9.53;3.70;;;7.90;38.50;;;;;;5021545;28;20560;-62
2022/11/24 00:43:19;;;;;;;10.60;4.30;;;7.90;38.70;;;;;;5023262;28;20550;-63
2022/11/24 00:45:45;;;;;;;9.53;4.20;;;7.90;38.50;;;;;;5025161;28;20550;-63
2022/11/24 00:48:12;;;;;;;9.60;4.50;;;7.90;38.40;;;;;;5017458;28;21417;-63
2022/11/24 00:50:39;;;;;;;8.80;4.13;;;7.90;38.30;;;;;;5019046;28;20537;-62
2022/11/24 00:53:06;;;;;;;9.43;3.80;;;7.80;38.40;;;;;;5021665;28;20547;-62
2022/11/24 00:55:34;;;;;;;11.23;4.80;;;7.80;38.30;;;;;;5022542;28;20577;-63
2022/11/24 00:58:02;;;;;;;8.13;3.93;;;7.70;38.30;;;;;;5020058;28;20579;-63
2022/11/24 01:00:29;;;;;;;8.67;4.63;;;7.60;38.20;;;;;;5024356;28;20954;-62
2022/11/24 01:02:56;;;;;;;6.63;4.00;;;7.60;38.50;;;;;;5026729;28;20460;-63
2022/11/24 01:05:23;;;;;;;10.03;5.20;;;7.50;38.40;;;;;;5023338;28;20458;-63
2022/11/24 01:07:49;;;;;;;7.83;4.33;;;7.50;38.50;;;;;;5022714;28;20569;-63
2022/11/24 01:10:17;;;;;;;14.27;4.70;;;7.40;38.60;;;;;;5027834;28;20467;-63
2022/11/24 01:12:45;;;;;;;9.37;5.00;;;7.40;38.60;;;;;;5022678;28;20488;-63
2022/11/24 01:15:12;;;;;;;10.23;4.73;;;7.40;38.90;;;;;;5020508;28;20598;-63
2022/11/24 01:17:39;;;;;;;10.70;4.33;;;7.40;39.00;;;;;;5020331;28;20561;-63
2022/11/24 01:20:07;;;;;;;9.50;4.60;;;7.30;39.10;;;;;;5023605;28;20559;-63
2022/11/24 01:22:34;;;;;;;14.10;5.17;;;7.30;39.30;;;;;;5023122;28;20990;-63
2022/11/24 01:25:01;;;;;;;12.07;5.13;;;7.20;39.40;;;;;;5020800;28;20466;-62
2022/11/24 01:27:27;;;;;;;10.33;5.13;;;7.20;39.40;;;;;;5021015;28;20918;-62
2022/11/24 01:29:56;;;;;;;8.20;4.30;;;7.20;39.60;;;;;;5022998;28;20490;-63
2022/11/24 01:32:23;;;;;;;8.27;4.20;;;7.20;39.70;;;;;;5021574;28;20471;-63
2022/11/24 01:34:49;;;;;;;12.17;4.60;;;7.20;39.80;;;;;;5018522;28;20543;-62
2022/11/24 01:37:16;;;;;;;6.63;3.90;;;7.20;39.80;;;;;;5018358;28;21066;-62
2022/11/24 01:39:43;;;;;;;10.20;4.37;;;7.20;39.80;;;;;;5023169;28;20554;-62
2022/11/24 01:42:10;;;;;;;11.93;4.07;;;7.20;39.90;;;;;;5023088;28;20550;-62
2022/11/24 01:44:37;;;;;;;7.70;4.27;;;7.20;40.00;;;;;;5016217;28;20550;-63
2022/11/24 01:47:17;;;;;;;8.87;3.50;;;7.20;40.10;;;;;;5019448;28;20492;-63
2022/11/24 01:49:48;;;;;;;7.27;3.93;;;7.20;40.30;;;;;;5024369;28;20504;-63
2022/11/24 01:52:19;;;;;;;7.60;3.90;;;7.20;40.30;;;;;;5022979;28;20549;-62
2022/11/24 01:54:48;;;;;;;8.17;3.70;;;7.20;40.50;;;;;;5024127;28;21243;-63
2022/11/24 01:57:20;;;;;;;12.90;4.17;;;7.10;40.60;;;;;;5018758;28;20486;-63
2022/11/24 01:59:51;;;;;;;10.40;4.30;;;7.10;40.60;;;;;;5030314;28;20459;-63
2022/11/24 02:02:20;;;;;;;9.63;4.20;;;7.10;40.80;;;;;;5011449;28;20600;-62
2022/11/24 02:04:48;;;;;;;6.90;3.80;;;7.10;41.00;;;;;;5020503;28;20494;-62
2022/11/24 02:07:15;;;;;;;8.27;4.57;;;7.10;41.00;;;;;;5020003;28;20565;-62
2022/11/24 02:09:47;;;;;;;8.60;3.83;;;7.10;41.10;;;;;;5016520;28;20575;-62
2022/11/24 02:12:14;;;;;;;7.70;3.57;;;7.10;41.20;;;;;;5017122;28;20943;-63
2022/11/24 02:14:43;;;;;;;8.50;3.73;;;7.10;41.30;;;;;;5021636;28;20467;-63
2022/11/24 02:17:10;;;;;;;10.20;3.20;;;7.20;42.00;;;;;;5018487;28;20569;-63
2022/11/24 02:19:48;;;;;;;7.93;3.13;;;7.20;41.30;;;;;;5020855;28;20954;-62
2022/11/24 02:22:22;;;;;;;11.53;3.60;;;7.30;41.40;;;;;;5018004;28;20590;-62
2022/11/24 02:24:54;;;;;;;11.70;3.73;;;7.30;41.40;;;;;;5016112;28;20466;-61
2022/11/24 02:27:22;;;;;;;6.30;2.70;;;7.40;41.40;;;;;;5017151;28;20566;-61
2022/11/24 02:29:50;;;;;;;7.50;3.00;;;7.40;41.40;;;;;;5020930;28;20558;-62
2022/11/24 02:32:18;;;;;;;9.60;3.33;;;7.40;41.20;;;;;;5021644;28;20554;-61
2022/11/24 02:34:45;;;;;;;9.53;3.77;;;7.50;41.30;;;;;;5017262;28;20465;-62
2022/11/24 02:37:12;;;;;;;6.90;3.30;;;7.50;41.30;;;;;;5024691;28;21082;-62
2022/11/24 02:39:39;;;;;;;7.20;3.17;;;7.50;41.20;;;;;;5021912;28;20477;-62
2022/11/24 02:42:10;;;;;;;7.13;2.77;;;7.60;41.30;;;;;;5024487;28;20549;-61
2022/11/24 02:44:45;;;;;;;6.47;2.47;;;7.60;41.30;;;;;;5021267;28;20654;-62
2022/11/24 02:47:13;;;;;;;8.73;2.93;;;7.70;41.70;;;;;;5023283;28;21094;-61
2022/11/24 02:49:40;;;;;;;5.70;2.83;;;7.70;41.00;;;;;;5027796;28;21014;-63
2022/11/24 02:52:07;;;;;;;9.43;2.93;;;7.70;40.80;;;;;;5028843;28;21017;-62
2022/11/24 02:54:34;;;;;;;9.03;3.20;;;7.70;40.80;;;;;;5022019;28;21049;-62
2022/11/24 02:57:01;;;;;;;8.00;2.93;;;7.70;40.60;;;;;;5029753;28;20569;-62
2022/11/24 02:59:28;;;;;;;6.03;2.67;;;7.70;40.50;;;;;;5028438;28;20550;-62
2022/11/24 03:01:56;;;;;;;8.60;3.00;;;7.70;40.30;;;;;;5028204;28;20559;-62
2022/11/24 03:04:23;;;;;;;9.03;3.40;;;7.80;40.20;;;;;;5022108;28;20549;-62
2022/11/24 03:06:50;;;;;;;5.33;2.50;;;7.80;40.10;;;;;;5025608;28;20561;-62
2022/11/24 03:09:17;;;;;;;5.40;1.67;;;7.80;39.90;;;;;;5023957;28;20564;-62
2022/11/24 03:11:44;;;;;;;5.50;1.77;;;7.80;39.60;;;;;;5028246;28;20584;-62
2022/11/24 03:14:11;;;;;;;5.53;1.97;;;7.80;39.60;;;;;;5024929;28;20458;-62
2022/11/24 03:16:38;;;;;;;7.00;2.20;;;7.80;39.60;;;;;;5026943;28;20570;-63
2022/11/24 03:19:06;;;;;;;6.10;1.70;;;7.80;39.30;;;;;;5021793;28;21164;-62
2022/11/24 03:21:33;;;;;;;7.23;2.00;;;7.80;39.40;;;;;;5026861;28;20543;-62
2022/11/24 03:24:00;;;;;;;4.80;1.30;;;7.80;39.30;;;;;;5029197;28;20559;-62
2022/11/24 03:26:27;;;;;;;5.20;1.97;;;7.70;39.50;;;;;;5025375;28;20455;-62
2022/11/24 03:28:56;;;;;;;8.07;2.00;;;7.70;39.50;;;;;;5028356;28;20529;-62
2022/11/24 03:31:23;;;;;;;5.20;1.67;;;7.70;39.40;;;;;;5022222;28;20552;-62
2022/11/24 03:33:50;;;;;;;5.90;1.80;;;7.70;39.40;;;;;;5025607;28;20470;-63
2022/11/24 03:36:19;;;;;;;4.77;1.43;;;7.60;39.20;;;;;;5020252;28;20937;-63
2022/11/24 03:38:46;;;;;;;5.50;1.40;;;7.60;39.20;;;;;;5023331;28;20559;-63
2022/11/24 03:41:12;;;;;;;7.27;1.83;;;7.70;39.30;;;;;;5026966;28;20591;-63
2022/11/24 03:43:39;;;;;;;5.37;1.50;;;7.70;39.30;;;;;;5024820;28;21031;-63
2022/11/24 03:46:06;;;;;;;4.70;1.30;;;7.60;39.20;;;;;;5029734;28;20483;-63
2022/11/24 03:48:33;;;;;;;4.60;1.47;;;7.50;39.50;;;;;;5027266;28;20585;-63
2022/11/24 03:51:02;;;;;;;4.40;1.20;;;7.40;40.20;;;;;;5023090;28;20553;-63
2022/11/24 03:53:32;;;;;;;7.30;1.60;;;7.40;39.70;;;;;;5024241;28;20797;-63
2022/11/24 03:56:00;;;;;;;5.33;1.77;;;7.40;39.90;;;;;;5019393;28;20459;-63
2022/11/24 03:58:28;;;;;;;8.43;1.87;;;7.30;40.00;;;;;;5024101;28;20495;-62
2022/11/24 04:00:55;;;;;;;6.20;1.33;;;7.30;40.10;;;;;;5024837;28;20561;-63
2022/11/24 04:03:23;;;;;;;5.70;2.13;;;7.30;40.20;;;;;;5028251;28;20552;-62
2022/11/24 04:05:50;;;;;;;11.10;1.70;;;7.20;40.10;;;;;;5024801;28;20534;-62
2022/11/24 04:08:17;;;;;;;7.50;1.43;;;7.20;40.30;;;;;;5025416;28;20594;-63
2022/11/24 04:10:50;;;;;;;9.47;1.90;;;7.20;40.30;;;;;;5025643;28;20513;-62
2022/11/24 04:13:17;;;;;;;5.90;2.00;;;7.20;40.40;;;;;;5019457;28;20462;-63
2022/11/24 04:15:45;;;;;;;6.73;1.97;;;7.30;40.50;;;;;;5021601;28;20463;-63
2022/11/24 04:18:13;;;;;;;10.63;2.17;;;7.30;40.50;;;;;;5023040;28;20488;-62
2022/11/24 04:20:40;;;;;;;6.77;1.60;;;7.40;40.40;;;;;;5016887;28;20513;-63
2022/11/24 04:23:08;;;;;;;6.57;2.07;;;7.40;40.20;;;;;;5029245;28;20465;-62
2022/11/24 04:25:35;;;;;;;7.00;1.80;;;7.30;40.30;;;;;;5018996;28;20463;-63
2022/11/24 04:28:04;;;;;;;8.40;2.00;;;7.30;40.30;;;;;;5025935;28;20481;-63
2022/11/24 04:30:31;;;;;;;10.20;2.73;;;7.30;40.30;;;;;;5019993;28;20461;-62
2022/11/24 04:32:58;;;;;;;7.50;1.73;;;7.30;40.40;;;;;;5020879;28;20456;-62
2022/11/24 04:35:25;;;;;;;10.73;2.30;;;7.20;40.30;;;;;;5018888;28;20470;-62
2022/11/24 04:37:51;;;;;;;7.37;2.13;;;7.20;40.50;;;;;;5015712;28;20482;-62
2022/11/24 04:40:19;;;;;;;10.20;2.00;;;7.20;40.40;;;;;;5017217;28;20470;-63
2022/11/24 04:42:52;;;;;;;13.40;3.23;;;7.20;40.50;;;;;;5026489;28;20823;-63
2022/11/24 04:45:20;;;;;;;6.93;1.70;;;7.10;40.70;;;;;;5023065;28;21245;-61
2022/11/24 04:47:47;;;;;;;8.17;2.07;;;7.10;40.50;;;;;;5018605;28;21200;-63
2022/11/24 04:50:14;;;;;;;7.80;2.23;;;7.10;40.50;;;;;;5021605;28;20465;-63
2022/11/24 04:52:42;;;;;;;8.33;2.00;;;7.10;40.60;;;;;;5024251;28;20470;-63
2022/11/24 04:55:09;;;;;;;10.43;2.80;;;7.10;40.60;;;;;;5018218;28;21093;-63
2022/11/24 04:57:35;;;;;;;8.10;2.30;;;7.00;40.50;;;;;;5019633;28;20508;-63
2022/11/24 05:00:02;;;;;;;10.93;2.23;;;7.00;40.50;;;;;;5017808;28;20472;-63
2022/11/24 05:02:31;;;;;;;5.73;2.43;;;7.00;40.40;;;;;;5021605;28;20479;-63
2022/11/24 05:04:57;;;;;;;7.73;3.00;;;7.00;40.60;;;;;;5017655;28;20463;-63
2022/11/24 05:07:24;;;;;;;8.77;2.70;;;6.90;40.60;;;;;;5024280;28;20490;-62
2022/11/24 05:12:40;;;;;;;7.50;2.23;;;6.90;40.60;;;;;;5011583;28;20448;-62
2022/11/24 05:15:08;;;;;;;9.40;2.20;;;6.90;40.50;;;;;;5017554;28;20551;-62
2022/11/24 05:17:38;;;;;;;10.03;2.37;;;6.90;40.70;;;;;;5025269;28;20505;-62
2022/11/24 05:20:07;;;;;;;6.93;2.20;;;6.90;40.80;;;;;;5017109;28;20460;-61
2022/11/24 05:22:33;;;;;;;6.97;3.10;;;6.80;40.80;;;;;;5019196;28;20852;-61
2022/11/24 05:25:00;;;;;;;12.07;2.70;;;6.80;41.00;;;;;;5023192;28;20464;-62
2022/11/24 05:27:27;;;;;;;9.20;3.07;;;6.80;41.20;;;;;;5019395;28;20565;-62
2022/11/24 05:29:54;;;;;;;7.77;2.60;;;6.90;41.60;;;;;;5023929;28;20460;-62
2022/11/24 05:32:21;;;;;;;7.60;2.80;;;6.90;41.50;;;;;;5023589;28;20475;-62
2022/11/24 05:34:49;;;;;;;10.50;2.80;;;6.90;41.50;;;;;;5022610;28;20467;-62
2022/11/24 05:37:16;;;;;;;8.47;2.83;;;6.90;41.40;;;;;;5019450;28;20486;-62
2022/11/24 05:39:43;;;;;;;9.90;3.60;;;6.90;41.40;;;;;;5022761;28;20459;-62
2022/11/24 05:44:54;;;;;;;10.20;3.10;;;7.00;41.10;;;;;;5022136;28;20445;-62
2022/11/24 05:47:21;;;;;;;9.13;2.40;;;6.90;41.00;;;;;;5024754;28;20844;-62
2022/11/24 05:49:50;;;;;;;10.93;3.10;;;6.90;41.00;;;;;;5022037;28;21033;-62
2022/11/24 05:52:17;;;;;;;12.13;3.57;;;6.90;40.80;;;;;;5026369;28;20463;-62
2022/11/24 05:54:44;;;;;;;13.00;2.37;;;6.90;41.00;;;;;;5022455;28;20456;-61
2022/11/24 05:57:12;;;;;;;10.50;2.50;;;6.90;41.00;;;;;;5025688;28;20485;-62
2022/11/24 05:59:38;;;;;;;8.80;3.00;;;6.90;40.80;;;;;;5021238;28;20542;-62
2022/11/24 06:02:08;;;;;;;11.57;2.93;;;6.90;41.00;;;;;;5027161;28;20483;-61
2022/11/24 06:04:35;;;;;;;9.30;3.77;;;6.90;40.90;;;;;;5021194;28;20470;-61
2022/11/24 06:07:06;;;;;;;12.83;2.60;;;6.90;41.10;;;;;;5028016;28;20489;-61
2022/11/24 06:09:35;;;;;;;7.53;2.40;;;6.90;41.10;;;;;;5025215;28;20467;-61
2022/11/24 06:12:02;;;;;;;11.67;2.40;;;6.90;41.20;;;;;;5017225;28;20464;-61
2022/11/24 06:14:29;;;;;;;9.53;3.00;;;6.80;41.20;;;;;;5022901;28;20459;-61
2022/11/24 06:16:56;;;;;;;11.07;3.43;;;6.80;41.50;;;;;;5020482;28;20488;-61
2022/11/24 06:19:22;;;;;;;10.53;2.67;;;6.80;41.40;;;;;;5022923;28;20465;-61
2022/11/24 06:21:49;;;;;;;13.57;3.50;;;6.80;41.60;;;;;;5021819;28;20455;-61
2022/11/24 06:24:17;;;;;;;9.50;2.50;;;6.90;41.80;;;;;;5023879;28;20617;-61
2022/11/24 06:26:44;;;;;;;15.13;3.13;;;6.90;41.80;;;;;;5018571;28;20846;-61
2022/11/24 06:29:11;;;;;;;7.67;2.87;;;6.80;41.70;;;;;;5022407;28;20458;-61
2022/11/24 06:31:38;;;;;;;7.53;2.33;;;6.90;41.90;;;;;;5016056;28;20474;-61
2022/11/24 06:34:06;;;;;;;15.50;4.17;;;6.90;41.90;;;;;;5022738;28;20955;-61
2022/11/24 06:36:33;;;;;;;11.83;3.00;;;6.90;42.10;;;;;;5016839;28;20460;-61
2022/11/24 06:39:01;;;;;;;8.73;2.60;;;6.90;42.20;;;;;;5021136;28;20463;-61
2022/11/24 06:41:29;;;;;;;19.53;4.20;;;7.00;42.20;;;;;;5021362;28;20886;-61
2022/11/24 06:43:56;;;;;;;11.90;3.77;;;7.10;42.10;;;;;;5027213;28;20469;-61
2022/11/24 06:46:23;;;;;;;13.97;3.53;;;7.10;42.20;;;;;;5019816;28;20554;-61
2022/11/24 06:48:52;;;;;;;12.47;2.60;;;7.20;42.00;;;;;;5016691;28;20475;-61
2022/11/24 06:51:19;;;;;;;12.67;2.60;;;7.30;42.00;;;;;;5011716;28;20475;-60
2022/11/24 06:53:46;;;;;;;12.43;4.03;;;7.40;41.70;;;;;;5027466;28;20461;-60
2022/11/24 06:56:17;;;;;;;10.27;2.67;;;7.50;41.40;;;;;;5023122;28;20505;-61
2022/11/24 06:58:47;;;;;;;10.60;3.00;;;7.50;41.20;;;;;;5026097;28;20487;-60
2022/11/24 07:01:15;;;;;;;10.60;2.47;;;7.60;40.80;;;;;;5013617;28;20467;-61
2022/11/24 07:03:41;;;;;;;8.47;2.67;;;7.70;40.60;;;;;;5019260;28;20463;-61
2022/11/24 07:06:08;;;;;;;14.97;2.37;;;7.80;40.20;;;;;;5018692;28;20464;-61
2022/11/24 07:08:35;;;;;;;11.83;3.33;;;7.90;39.90;;;;;;5021474;28;20479;-61
2022/11/24 07:11:05;;;;;;;8.10;3.43;;;8.00;39.60;;;;;;5022571;28;20459;-61
2022/11/24 07:13:33;;;;;;;12.63;2.60;;;8.10;39.10;;;;;;5014191;28;20458;-61
2022/11/24 07:16:09;;;;;;;12.27;2.60;;;8.20;38.70;;;;;;5018821;28;21054;-62
2022/11/24 07:18:36;;;;;;;8.03;2.20;;;8.30;38.70;;;;;;5017980;28;20978;-62
2022/11/24 07:21:04;;;;;;;14.90;2.40;;;8.40;38.10;;;;;;5026382;28;20467;-62
2022/11/24 07:23:30;;;;;;;7.80;2.20;;;8.40;37.70;;;;;;5021876;28;20938;-62
2022/11/24 07:25:57;;;;;;;8.47;2.10;;;8.60;37.50;;;;;;5022822;28;20455;-62
2022/11/24 07:28:24;;;;;;;13.13;2.77;;;8.80;37.40;;;;;;5023798;28;20474;-62
2022/11/24 07:30:51;;;;;;;9.47;2.50;;;9.10;36.50;;;;;;5016638;28;20470;-62
2022/11/24 07:33:23;;;;;;;9.10;2.47;;;9.20;35.50;;;;;;5020420;28;20464;-62
2022/11/24 07:35:50;;;;;;;6.63;2.07;;;9.50;34.80;;;;;;5023723;28;20855;-62
2022/11/24 07:38:17;;;;;;;12.10;2.27;;;9.70;33.70;;;;;;5019834;28;20501;-61
2022/11/24 07:40:44;;;;;;;13.03;2.50;;;9.90;33.40;;;;;;5027560;28;22097;-61
2022/11/24 07:43:11;;;;;;;8.90;2.03;;;10.40;32.00;;;;;;5018623;28;21074;-61
2022/11/24 07:45:38;;;;;;;8.40;2.27;;;10.60;30.60;;;;;;5025144;28;20456;-62
2022/11/24 07:48:05;;;;;;;7.63;2.13;;;10.50;30.20;;;;;;5019802;28;20495;-61
2022/11/24 07:50:33;;;;;;;8.77;1.73;;;10.30;30.50;;;;;;5028999;28;20458;-60
2022/11/24 07:53:02;;;;;;;11.93;2.70;;;10.20;30.80;;;;;;5027784;28;20470;-61
2022/11/24 07:55:29;;;;;;;6.10;1.80;;;10.10;30.80;;;;;;5026262;28;20455;-61
2022/11/24 07:57:59;;;;;;;8.30;1.60;;;9.90;31.30;;;;;;5022942;28;20481;-62
2022/11/24 08:00:26;;;;;;;7.80;1.87;;;9.80;31.40;;;;;;5025948;28;20532;-62
2022/11/24 08:02:53;;;;;;;9.10;1.50;;;9.70;31.80;;;;;;5030467;28;20463;-62
2022/11/24 08:05:21;;;;;;;6.00;1.90;;;9.60;32.20;;;;;;5025015;28;20862;-62
2022/11/24 08:07:49;;;;;;;8.07;2.10;;;9.60;32.50;;;;;;5016010;28;20491;-61
2022/11/24 08:10:17;;;;;;;9.90;2.13;;;9.50;32.70;;;;;;5019950;28;20466;-61
2022/11/24 08:12:43;;;;;;;9.30;2.93;;;9.60;32.60;;;;;;5024939;28;20462;-61
2022/11/24 08:15:11;;;;;;;7.33;2.00;;;9.50;32.80;;;;;;5023326;28;20469;-61
2022/11/24 08:17:38;;;;;;;10.03;2.57;;;9.50;33.00;;;;;;5024412;28;20998;-61
2022/11/24 08:20:06;;;;;;;10.50;2.10;;;9.50;33.20;;;;;;5021342;28;20463;-61
2022/11/24 08:22:32;;;;;;;9.90;2.33;;;9.50;33.20;;;;;;5020888;28;20540;-60
2022/11/24 08:25:01;;;;;;;9.23;2.03;;;9.40;33.30;;;;;;5029310;28;20455;-60
2022/11/24 08:27:27;;;;;;;8.43;2.10;;;9.40;33.50;;;;;;5023266;28;21002;-62
2022/11/24 08:29:54;;;;;;;7.80;2.50;;;9.30;33.50;;;;;;5015793;28;20463;-61
2022/11/24 08:32:21;;;;;;;8.03;1.90;;;9.30;33.90;;;;;;5026309;28;20478;-62
2022/11/24 08:34:48;;;;;;;7.20;1.63;;;9.30;34.40;;;;;;5023356;28;20471;-61
2022/11/24 08:37:14;;;;;;;6.07;1.83;;;9.30;34.30;;;;;;5023471;28;20478;-62
2022/11/24 08:39:41;;;;;;;9.20;1.93;;;9.30;34.40;;;;;;5024558;28;20978;-62
2022/11/24 08:42:09;;;;;;;8.50;1.60;;;9.30;34.60;;;;;;5018811;28;20463;-61
2022/11/24 08:44:36;;;;;;;6.77;1.97;;;9.30;34.60;;;;;;5028303;28;20459;-62
2022/11/24 08:47:03;;;;;;;7.80;1.87;;;9.30;34.30;;;;;;5022260;28;20486;-61
2022/11/24 08:49:29;;;;;;;14.43;3.13;;;9.20;34.70;;;;;;5024969;28;20560;-61
2022/11/24 08:51:57;;;;;;;6.37;2.07;;;9.10;35.30;;;;;;5008752;28;20459;-60
2022/11/24 08:54:25;;;;;;;12.83;2.40;;;9.10;35.40;;;;;;5022128;28;20447;-61
2022/11/24 08:56:52;;;;;;;8.37;2.10;;;9.00;36.00;;;;;;5019727;28;20829;-61
2022/11/24 08:59:20;;;;;;;6.40;1.63;;;9.00;36.30;;;;;;5025797;28;20479;-61
2022/11/24 09:01:48;;;;;;;10.50;2.50;;;9.00;36.40;;;;;;5018104;28;20482;-61
2022/11/24 09:04:14;;;;;;;7.30;1.57;;;9.00;36.60;;;;;;5015764;28;20972;-61
2022/11/24 09:06:41;;;;;;;10.50;3.93;;;9.00;36.80;;;;;;5016852;28;20467;-61
2022/11/24 09:09:09;;;;;;;12.53;3.57;;;9.00;36.80;;;;;;5020405;28;20542;-61
2022/11/24 09:11:36;;;;;;;6.10;2.20;;;9.00;37.00;;;;;;5020781;28;20502;-62
2022/11/24 09:14:04;;;;;;;9.23;2.50;;;9.00;37.10;;;;;;5017950;28;20455;-61
2022/11/24 09:16:33;;;;;;;6.87;1.70;;;9.00;37.20;;;;;;5014369;28;20463;-63
2022/11/24 09:19:01;;;;;;;6.57;1.60;;;9.00;37.20;;;;;;5020025;28;20512;-61
2022/11/24 09:21:29;;;;;;;8.17;2.10;;;9.00;37.90;;;;;;5024877;28;20467;-60
2022/11/24 09:23:56;;;;;;;9.90;2.90;;;9.00;37.50;;;;;;5017901;28;20464;-61
2022/11/24 09:26:25;;;;;;;9.20;1.87;;;9.10;37.50;;;;;;5019950;28;20851;-61
2022/11/24 09:28:54;;;;;;;8.83;1.80;;;9.10;37.60;;;;;;5017989;28;20497;-61
2022/11/24 09:31:25;;;;;;;6.23;1.60;;;9.20;37.10;;;;;;5021263;28;20564;-62
2022/11/24 09:33:54;;;;;;;6.13;1.40;;;9.20;37.10;;;;;;5024100;28;20459;-61
2022/11/24 09:36:24;;;;;;;10.40;1.60;;;9.30;36.90;;;;;;5021428;28;20467;-61
2022/11/24 09:38:51;;;;;;;6.87;1.77;;;9.30;36.50;;;;;;5022381;28;20986;-61
2022/11/24 09:41:32;;;;;;;7.03;1.70;;;9.30;36.30;;;;;;5018247;28;20489;-61
2022/11/24 09:44:07;;;;;;;6.30;2.10;;;9.40;35.80;;;;;;5021883;28;20466;-61
2022/11/24 09:46:43;;;;;;;4.63;1.13;;;9.40;35.90;;;;;;5024113;28;20464;-62
2022/11/24 09:49:15;;;;;;;5.17;1.73;;;9.40;35.60;;;;;;5023530;28;20451;-63
2022/11/24 09:51:44;;;;;;;7.37;2.00;;;9.40;35.60;;;;;;5024400;28;20466;-62
2022/11/24 09:54:16;;;;;;;7.67;1.77;;;9.40;35.70;;;;;;5022572;28;20461;-61
2022/11/24 09:56:43;;;;;;;8.10;1.53;;;9.40;35.50;;;;;;5015236;28;20537;-61
2022/11/24 09:59:15;;;;;;;5.10;1.43;;;9.40;34.90;;;;;;5024691;28;20508;-61
2022/11/24 10:01:44;;;;;;;4.10;1.27;;;9.40;34.40;;;;;;5019377;28;20609;-61
2022/11/24 10:04:16;;;;;;;6.13;1.20;;;9.30;34.30;;;;;;5023291;28;21088;-61
2022/11/24 10:06:48;;;;;;;4.63;1.63;;;9.30;34.30;;;;;;5017927;28;20466;-61
2022/11/24 10:09:39;;;;;;;4.53;1.00;;;9.30;34.20;;;;;;5020990;28;20459;-63
2022/11/24 10:12:20;;;;;;;5.83;1.20;;;9.40;34.40;;;;;;5018677;28;20474;-62
2022/11/24 10:15:10;;;;;;;5.30;1.40;;;9.70;33.70;;;;;;5026423;28;20486;-61
2022/11/24 10:17:48;;;;;;;7.73;1.00;;;9.90;33.30;;;;;;5014413;28;20857;-62
2022/11/24 10:20:25;;;;;;;6.17;1.17;;;10.30;32.70;;;;;;5022745;28;20462;-62
2022/11/24 10:23:04;;;;;;;4.13;0.90;;;10.70;31.30;;;;;;5015444;28;21092;-62
2022/11/24 10:25:42;;;;;;;5.40;1.83;;;10.80;29.90;;;;;;5021857;28;20463;-62
2022/11/24 10:28:13;;;;;;;4.83;1.00;;;10.80;29.40;;;;;;5014777;28;20470;-61
2022/11/24 10:30:40;;;;;;;5.87;1.33;;;10.80;28.50;;;;;;5024043;28;20471;-62
2022/11/24 10:33:13;;;;;;;4.60;1.00;;;10.80;28.60;;;;;;5014656;28;20462;-60
2022/11/24 10:35:46;;;;;;;4.97;1.10;;;10.80;29.00;;;;;;5031619;28;20468;-60
2022/11/24 10:38:24;;;;;;;4.20;1.00;;;10.80;28.80;;;;;;5026966;28;20482;-61
2022/11/24 10:40:54;;;;;;;7.43;1.37;;;10.90;28.90;;;;;;5029849;28;20465;-61
2022/11/24 10:43:21;;;;;;;4.87;1.70;;;11.00;28.50;;;;;;5016590;28;20463;-61
2022/11/24 10:45:48;;;;;;;5.20;1.10;;;11.00;28.70;;;;;;5029253;28;20459;-61
2022/11/24 10:48:20;;;;;;;3.90;0.70;;;11.00;28.60;;;;;;5023713;28;20471;-61
2022/11/24 10:50:48;;;;;;;5.87;1.03;;;10.90;27.10;;;;;;5019036;28;20964;-60
2022/11/24 10:53:20;;;;;;;4.53;0.90;;;10.80;27.50;;;;;;5023362;28;20459;-61
2022/11/24 10:56:03;;;;;;;4.53;0.90;;;10.70;28.30;;;;;;5019379;28;20463;-61
2022/11/24 10:58:31;;;;;;;4.47;0.90;;;10.70;28.70;;;;;;5016088;28;20474;-61
2022/11/24 11:01:00;;;;;;;4.33;0.90;;;10.70;28.80;;;;;;5021230;28;21197;-60
2022/11/24 11:03:30;;;;;;;4.80;1.70;;;10.70;28.80;;;;;;5023854;28;20973;-61
2022/11/24 11:06:03;;;;;;;3.50;0.50;;;10.70;29.00;;;;;;5020446;28;20478;-62
2022/11/24 11:08:31;;;;;;;4.60;0.67;;;10.60;29.20;;;;;;5017206;28;20474;-61
2022/11/24 11:11:14;;;;;;;3.57;0.80;;;10.60;28.30;;;;;;5029389;28;20542;-61
2022/11/24 11:13:51;;;;;;;3.30;0.60;;;10.60;28.40;;;;;;5018575;28;20470;-61
2022/11/24 11:16:30;;;;;;;4.60;0.80;;;10.80;29.20;;;;;;5025619;28;20877;-61
2022/11/24 11:19:00;;;;;;;4.27;1.00;;;12.30;27.50;;;;;;5022567;28;21050;-61
2022/11/24 11:21:35;;;;;;;4.37;1.50;;;13.00;24.20;;;;;;5025408;28;20540;-60
2022/11/24 11:24:04;;;;;;;4.40;1.03;;;13.20;22.30;;;;;;5025089;28;20459;-61
2022/11/24 11:26:37;;;;;;;3.97;1.03;;;13.00;22.30;;;;;;5025635;28;20463;-61
2022/11/24 11:29:15;;;;;;;4.10;0.90;;;12.80;23.40;;;;;;5016645;28;20484;-61
2022/11/24 11:31:42;;;;;;;5.10;0.90;;;12.80;22.70;;;;;;5021910;28;20483;-61
2022/11/24 11:34:18;;;;;;;4.00;1.07;;;12.90;23.90;;;;;;5012912;28;20455;-61
2022/11/24 11:36:49;;;;;;;3.63;0.87;;;13.70;21.10;;;;;;5022597;28;20455;-61
2022/11/24 11:39:28;;;;;;;3.90;0.70;;;13.60;20.00;;;;;;5027358;28;20478;-61
2022/11/24 11:42:07;;;;;;;4.17;0.80;;;13.30;20.50;;;;;;5020678;28;20545;-61
2022/11/24 11:44:38;;;;;;;3.33;0.80;;;13.10;20.70;;;;;;5023029;28;20488;-61
2022/11/24 11:47:19;;;;;;;3.60;0.70;;;13.20;21.60;;;;;;5028344;28;20484;-61
2022/11/24 11:49:48;;;;;;;5.13;1.17;;;13.20;21.70;;;;;;5033930;28;20465;-61
2022/11/24 11:52:33;;;;;;;3.60;0.80;;;13.50;22.10;;;;;;5025389;28;20803;-61
2022/11/24 11:55:33;;;;;;;5.93;1.23;;;14.70;20.20;;;;;;5025447;28;20467;-61
2022/11/24 11:58:18;;;;;;;5.37;0.93;;;16.20;18.30;;;;;;5026723;28;20482;-62
2022/11/24 12:00:51;;;;;;;4.93;1.03;;;17.30;15.90;;;;;;5023827;28;20465;-62
2022/11/24 12:03:51;;;;;;;4.43;0.90;;;18.00;13.80;;;;;;5013651;28;20566;-62
2022/11/24 12:06:34;;;;;;;4.23;1.00;;;18.20;12.30;;;;;;5021199;28;20461;-61
2022/11/24 12:09:17;;;;;;;4.93;1.10;;;18.20;12.00;;;;;;5021187;28;20466;-62
2022/11/24 12:11:48;;;;;;;4.77;0.90;;;18.30;11.60;;;;;;5021280;28;20464;-61
2022/11/24 12:14:27;;;;;;;3.60;0.70;;;18.20;11.50;;;;;;5025752;28;20493;-62
2022/11/24 12:17:00;;;;;;;4.30;1.00;;;18.20;11.10;;;;;;5016006;28;20482;-62
2022/11/24 12:19:42;;;;;;;6.50;0.93;;;18.30;11.10;;;;;;5024644;28;20467;-62
2022/11/24 12:22:17;;;;;;;5.20;1.17;;;18.10;11.10;;;;;;5018035;28;20494;-62
2022/11/24 12:24:55;;;;;;;4.90;1.03;;;18.00;11.60;;;;;;5024131;28;20489;-62
2022/11/24 12:27:30;;;;;;;4.43;0.80;;;17.90;11.50;;;;;;5026142;28;20486;-62
2022/11/24 12:30:08;;;;;;;5.57;0.90;;;17.80;11.40;;;;;;5026110;28;20541;-61
2022/11/24 12:33:16;;;;;;;4.83;0.97;;;17.60;11.20;;;;;;5017293;28;20475;-61
2022/11/24 12:35:46;;;;;;;6.27;1.27;;;16.80;12.20;;;;;;5026554;28;20466;-61
2022/11/24 12:38:29;;;;;;;4.60;1.03;;;16.60;13.70;;;;;;5027000;28;20486;-61
2022/11/24 12:41:17;;;;;;;5.57;1.50;;;16.70;13.40;;;;;;5021145;28;21258;-61
2022/11/24 12:43:50;;;;;;;6.73;1.10;;;16.70;12.70;;;;;;5023952;28;20455;-61
2022/11/24 12:46:23;;;;;;;5.17;1.57;;;16.60;12.10;;;;;;5018634;28;20463;-61
2022/11/24 12:49:00;;;;;;;9.13;1.43;;;16.40;12.90;;;;;;5022673;28;20478;-61
2022/11/24 12:51:32;;;;;;;4.47;1.07;;;16.10;13.30;;;;;;5019850;28;20470;-61
2022/11/24 12:54:02;;;;;;;5.03;1.00;;;15.90;14.20;;;;;;5027037;28;20466;-61
2022/11/24 12:56:36;;;;;;;7.50;1.77;;;15.70;14.70;;;;;;5023137;28;20466;-63
2022/11/24 12:59:19;;;;;;;5.23;1.07;;;15.60;16.10;;;;;;5018317;28;20865;-61
2022/11/24 13:01:53;;;;;;;7.50;1.63;;;15.60;15.90;;;;;;5023023;28;20486;-61
2022/11/24 13:04:32;;;;;;;4.67;1.07;;;15.50;15.20;;;;;;5024447;28;20463;-60
2022/11/24 13:07:04;;;;;;;4.70;1.07;;;15.30;15.10;;;;;;5014293;28;22418;-61
2022/11/24 13:09:31;;;;;;;4.83;1.00;;;15.10;15.00;;;;;;5023765;28;21039;-61
2022/11/24 13:12:11;;;;;;;3.87;0.83;;;15.00;14.90;;;;;;5019835;28;20466;-62